| time (UTC) | temp F | wind direction | speed MPH | gust MPH | rain 1hr in | rain 24hr in | rain mn in | humidity % | barometer mb |
| 20260507072526 | 49 | 0.0 | 0.0 | 0.00 | 0.00 | 0.00 | 53 | 1015.1 | |
| 20260507071516 | 48 | 0.0 | 0.0 | 0.00 | 0.00 | 0.00 | 52 | 1015.1 | |
| 20260507070528 | 48 | 0.0 | 0.0 | 0.00 | 0.00 | 0.00 | 51 | 1015.5 | |
| 20260507065544 | 47 | 0.0 | 0.0 | 0.00 | 0.00 | 0.00 | 51 | 1015.6 | |
| 20260507064542 | 47 | 0.0 | 0.0 | 0.00 | 0.00 | 0.00 | 50 | 1015.6 | |
| 20260507063529 | 48 | 0.0 | 0.0 | 0.00 | 0.00 | 0.00 | 47 | 1015.7 | |
| 20260507062516 | 48 | 0.0 | 0.0 | 0.00 | 0.00 | 0.00 | 46 | 1015.8 | |
| 20260507061518 | 48 | 0.0 | 0.0 | 0.00 | 0.00 | 0.00 | 46 | 1015.9 | |
| 20260507060535 | 48 | 0.0 | 0.0 | 0.00 | 0.00 | 0.00 | 46 | 1015.9 | |
| 20260507055527 | 49 | 0.0 | 0.0 | 0.00 | 0.00 | 0.00 | 44 | 1015.9 | |
| 20260507054523 | 49 | 0.0 | 0.0 | 0.00 | 0.00 | 0.00 | 44 | 1016.0 | |
| 20260507053539 | 48 | 0.0 | 0.0 | 0.00 | 0.00 | 0.00 | 46 | 1016.0 | |
| 20260507052537 | 48 | 0.0 | 0.0 | 0.00 | 0.00 | 0.00 | 46 | 1015.9 | |
| 20260507051530 | 49 | 0.0 | 0.0 | 0.00 | 0.00 | 0.00 | 43 | 1016.1 | |
| 20260507050524 | 48 | 0.0 | 0.0 | 0.00 | 0.00 | 0.00 | 44 | 1016.0 | |
| 20260507045519 | 48 | 0.0 | 0.0 | 0.00 | 0.00 | 0.00 | 46 | 1016.1 | |
| 20260507044528 | 48 | 0.0 | 0.0 | 0.00 | 0.00 | 0.00 | 46 | 1016.2 | |
| 20260507043518 | 48 | 0.0 | 0.0 | 0.00 | 0.00 | 0.00 | 49 | 1016.2 | |
| 20260507042538 | 48 | 0.0 | 0.0 | 0.00 | 0.00 | 0.00 | 47 | 1016.4 | |
| 20260507041532 | 48 | 0.0 | 0.0 | 0.00 | 0.00 | 0.00 | 48 | 1016.4 | |
| 20260507040525 | 49 | 0.0 | 0.0 | 0.00 | 0.00 | 0.00 | 44 | 1016.5 | |
| 20260507035521 | 49 | 0.0 | 0.0 | 0.00 | 0.00 | 0.00 | 45 | 1016.5 | |
| 20260507034517 | 50 | 0.0 | 0.0 | 0.00 | 0.00 | 0.00 | 44 | 1016.5 | |
| 20260507033531 | 49 | 0.0 | 0.0 | 0.00 | 0.00 | 0.00 | 45 | 1016.6 | |
| 20260507032544 | 51 | 0.0 | 0.0 | 0.00 | 0.00 | 0.00 | 40 | 1016.7 | |
| 20260507031519 | 51 | 0.0 | 0.0 | 0.00 | 0.00 | 0.00 | 41 | 1016.6 | |
| 20260507030527 | 52 | 0.0 | 0.0 | 0.00 | 0.00 | 0.00 | 40 | 1016.6 | |
| 20260507025536 | 53 | 0.0 | 0.0 | 0.00 | 0.00 | 0.00 | 39 | 1016.5 | |
| 20260507024520 | 53 | 0.0 | 0.0 | 0.00 | 0.00 | 0.00 | 38 | 1016.4 | |
| 20260507023531 | 53 | 0.0 | 0.0 | 0.00 | 0.00 | 0.00 | 38 | 1016.3 | |
| 20260507022526 | 54 | 0.0 | 0.0 | 0.00 | 0.00 | 0.00 | 37 | 1016.3 | |
| 20260507021522 | 55 | 0.0 | 0.0 | 0.00 | 0.00 | 0.00 | 35 | 1016.4 | |
| 20260507020521 | 57 | 0.0 | 0.0 | 0.00 | 0.00 | 0.00 | 33 | 1016.4 | |
| 20260507015531 | 57 | 0.0 | 0.0 | 0.00 | 0.00 | 0.00 | 31 | 1016.4 | |
| 20260507014524 | 59 | 0.0 | 0.0 | 0.00 | 0.00 | 0.00 | 29 | 1016.3 | |
| 20260507013520 | 60 | 0.0 | 0.0 | 0.00 | 0.00 | 0.00 | 26 | 1016.2 | |
| 20260507012527 | 62 | 0.0 | 0.0 | 0.00 | 0.00 | 0.00 | 25 | 1016.3 | |
| 20260507011516 | 62 | 0.0 | 0.0 | 0.00 | 0.00 | 0.00 | 22 | 1016.2 | |
| 20260507010519 | 63 | 0.0 | 0.0 | 0.00 | 0.00 | 0.00 | 22 | 1016.2 | |
| 20260507005532 | 63 | 0.0 | 0.0 | 0.00 | 0.00 | 0.00 | 22 | 1016.2 | |
| 20260507004526 | 63 | 0.0 | 0.0 | 0.00 | 0.00 | 0.00 | 21 | 1016.2 | |
| 20260507003522 | 64 | 0.0 | 0.0 | 0.00 | 0.00 | 0.00 | 20 | 1016.4 | |
| 20260507002517 | 65 | 0.0 | 0.0 | 0.00 | 0.00 | 0.00 | 20 | 1016.4 | |
| 20260507001531 | 65 | 0.0 | 0.0 | 0.00 | 0.00 | 0.00 | 19 | 1016.5 | |
| 20260507000525 | 67 | 0.0 | 0.0 | 0.00 | 0.00 | 0.00 | 19 | 1016.6 | |
| 20260506235520 | 67 | 0.0 | 0.0 | 0.00 | 0.00 | 0.00 | 19 | 1016.7 | |
| 20260506234527 | 68 | 0.0 | 0.0 | 0.00 | 0.00 | 0.00 | 19 | 1016.7 | |
| 20260506233517 | 68 | 0.0 | 0.0 | 0.00 | 0.00 | 0.00 | 19 | 1016.8 | |
| 20260506232517 | 65 | 0.0 | 0.0 | 0.00 | 0.00 | 0.00 | 20 | 1016.8 | |
| 20260506231531 | 67 | 248 | 0.0 | 3.0 | 0.00 | 0.00 | 0.00 | 19 | 1016.9 |
| 20260506230528 | 68 | 315 | 0.0 | 3.0 | 0.00 | 0.00 | 0.00 | 19 | 1016.9 |
| 20260506225548 | 66 | 0.0 | 0.0 | 0.00 | 0.00 | 0.00 | 20 | 1017.0 | |
| 20260506224531 | 66 | 0.0 | 0.0 | 0.00 | 0.00 | 0.00 | 19 | 1017.1 | |
| 20260506223522 | 69 | 0.0 | 0.0 | 0.00 | 0.00 | 0.00 | 19 | 1017.2 | |
| 20260506222533 | 66 | 0.0 | 0.0 | 0.00 | 0.00 | 0.00 | 21 | 1017.3 | |
| 20260506221523 | 65 | 0.0 | 0.0 | 0.00 | 0.00 | 0.00 | 21 | 1017.4 | |
| 20260506220523 | 65 | 324 | 1.0 | 10.0 | 0.00 | 0.00 | 0.00 | 21 | 1017.4 |
| 20260506215518 | 65 | 270 | 0.0 | 3.0 | 0.00 | 0.00 | 0.00 | 21 | 1017.4 |
| 20260506214532 | 66 | 0.0 | 0.0 | 0.00 | 0.00 | 0.00 | 21 | 1017.4 | |
| 20260506213546 | 64 | 0.0 | 0.0 | 0.00 | 0.00 | 0.00 | 21 | 1017.7 | |
| 20260506212524 | 66 | 0.0 | 0.0 | 0.00 | 0.00 | 0.00 | 21 | 1017.9 | |
| 20260506211558 | 52 | 293 | 0.0 | 6.0 | 0.00 | 0.00 | 0.00 | 20 | 1017.9 |
| 20260506210533 | 65 | 0.0 | 0.0 | 0.00 | 0.00 | 0.00 | 21 | 1018.0 | |
| 20260506205528 | 66 | 290 | 2.0 | 22.0 | 0.00 | 0.00 | 0.00 | 21 | 1018.1 |
| 20260506204521 | 65 | 0.0 | 0.0 | 0.00 | 0.00 | 0.00 | 21 | 1018.3 | |
| 20260506203516 | 65 | 0.0 | 0.0 | 0.00 | 0.00 | 0.00 | 21 | 1018.4 | |
| 20260506202524 | 63 | 270 | 1.0 | 8.0 | 0.00 | 0.00 | 0.00 | 23 | 1018.6 |
| 20260506201541 | 63 | 293 | 0.0 | 3.0 | 0.00 | 0.00 | 0.00 | 23 | 1018.7 |
| 20260506200518 | 64 | 270 | 1.0 | 5.0 | 0.00 | 0.00 | 0.00 | 22 | 1018.7 |
| 20260506195550 | 63 | 0.0 | 0.0 | 0.00 | 0.00 | 0.00 | 24 | 1018.7 | |
| 20260506194525 | 63 | 270 | 0.0 | 3.0 | 0.00 | 0.00 | 0.00 | 23 | 1018.8 |
| 20260506193545 | 63 | 270 | 1.0 | 16.0 | 0.00 | 0.00 | 0.00 | 24 | 1018.9 |
| 20260506192519 | 64 | 293 | 1.0 | 8.0 | 0.00 | 0.00 | 0.00 | 23 | 1018.7 |
| 20260506191532 | 64 | 281 | 2.0 | 11.0 | 0.00 | 0.00 | 0.00 | 23 | 1018.9 |
| 20260506190549 | 63 | 232 | 1.0 | 10.0 | 0.00 | 0.00 | 0.00 | 24 | 1018.9 |
| 20260506185548 | 61 | 270 | 0.0 | 3.0 | 0.00 | 0.00 | 0.00 | 25 | 1019.1 |
| 20260506184520 | 64 | 270 | 0.0 | 8.0 | 0.00 | 0.00 | 0.00 | 23 | 1019.2 |
| 20260506183529 | 63 | 282 | 1.0 | 8.0 | 0.00 | 0.00 | 0.00 | 24 | 1019.4 |
| 20260506182538 | 62 | 270 | 1.0 | 6.0 | 0.00 | 0.00 | 0.00 | 25 | 1019.3 |
| 20260506181518 | 62 | 270 | 1.0 | 8.0 | 0.00 | 0.00 | 0.00 | 25 | 1019.4 |
| 20260506180552 | 62 | 270 | 0.0 | 3.0 | 0.00 | 0.00 | 0.00 | 26 | 1019.7 |
| 20260506175527 | 60 | 0.0 | 0.0 | 0.00 | 0.00 | 0.00 | 27 | 1019.8 | |
| 20260506174544 | 60 | 0.0 | 0.0 | 0.00 | 0.00 | 0.00 | 27 | 1019.8 | |
| 20260506173523 | 62 | 0.0 | 0.0 | 0.00 | 0.00 | 0.00 | 26 | 1019.9 | |
| 20260506172551 | 60 | 0.0 | 0.0 | 0.00 | 0.00 | 0.00 | 27 | 1020.1 | |
| 20260506171549 | 60 | 0.0 | 0.0 | 0.00 | 0.00 | 0.00 | 27 | 1020.1 | |
| 20260506170603 | 59 | 315 | 1.0 | 3.0 | 0.00 | 0.00 | 0.00 | 28 | 1020.2 |
| 20260506165517 | 60 | 270 | 1.0 | 13.0 | 0.00 | 0.00 | 0.00 | 27 | 1020.3 |
| 20260506164525 | 58 | 312 | 1.0 | 3.0 | 0.00 | 0.00 | 0.00 | 29 | 1020.3 |
| 20260506163526 | 59 | 0.0 | 0.0 | 0.00 | 0.00 | 0.00 | 28 | 1020.4 | |
| 20260506162520 | 58 | 315 | 0.0 | 3.0 | 0.00 | 0.00 | 0.00 | 28 | 1020.3 |
| 20260506161532 | 58 | 0.0 | 0.0 | 0.00 | 0.00 | 0.00 | 29 | 1020.3 | |
| 20260506160535 | 59 | 0.0 | 0.0 | 0.00 | 0.00 | 0.00 | 29 | 1020.2 | |
| 20260506155525 | 58 | 0.0 | 0.0 | 0.00 | 0.00 | 0.00 | 29 | 1020.1 | |
| 20260506154521 | 57 | 0.0 | 0.0 | 0.00 | 0.00 | 0.00 | 30 | 1020.1 | |
| 20260506153535 | 57 | 315 | 0.0 | 3.0 | 0.00 | 0.00 | 0.00 | 30 | 1020.2 |
| 20260506152528 | 58 | 0.0 | 0.0 | 0.00 | 0.00 | 0.00 | 30 | 1020.1 | |
| 20260506151524 | 59 | 0.0 | 0.0 | 0.00 | 0.00 | 0.00 | 29 | 1020.2 | |
| 20260506150520 | 58 | 0.0 | 0.0 | 0.00 | 0.00 | 0.00 | 30 | 1020.2 | |
| 20260506145610 | 59 | 0.0 | 0.0 | 0.00 | 0.00 | 0.00 | 30 | 1020.2 | |
| 20260506144520 | 60 | 0.0 | 0.0 | 0.00 | 0.00 | 0.00 | 29 | 1020.2 | |
| 20260506143520 | 59 | 0.0 | 0.0 | 0.00 | 0.00 | 0.00 | 30 | 1020.2 | |
| 20260506142537 | 58 | 0.0 | 0.0 | 0.00 | 0.00 | 0.00 | 30 | 1020.1 | |
| 20260506141530 | 58 | 0.0 | 0.0 | 0.00 | 0.00 | 0.00 | 31 | 1020.1 | |
| 20260506140525 | 56 | 0.0 | 0.0 | 0.00 | 0.00 | 0.00 | 34 | 1020.0 | |
| 20260506135523 | 57 | 0.0 | 0.0 | 0.00 | 0.00 | 0.00 | 34 | 1020.0 | |
| 20260506134538 | 55 | 0.0 | 0.0 | 0.00 | 0.00 | 0.00 | 34 | 1019.9 | |
| 20260506133533 | 55 | 0.0 | 0.0 | 0.00 | 0.00 | 0.00 | 35 | 1019.8 | |
| 20260506132546 | 54 | 0.0 | 0.0 | 0.00 | 0.00 | 0.00 | 36 | 1019.6 | |
| 20260506131522 | 54 | 0.0 | 0.0 | 0.00 | 0.00 | 0.00 | 38 | 1019.4 | |
| 20260506130548 | 52 | 0.0 | 0.0 | 0.00 | 0.00 | 0.00 | 39 | 1019.5 | |
| 20260506125518 | 51 | 0.0 | 0.0 | 0.00 | 0.00 | 0.00 | 41 | 1019.4 | |
| 20260506124519 | 50 | 0.0 | 0.0 | 0.00 | 0.00 | 0.00 | 43 | 1019.3 | |
| 20260506123533 | 48 | 0.0 | 0.0 | 0.00 | 0.00 | 0.00 | 45 | 1019.0 | |
| 20260506122531 | 48 | 0.0 | 0.0 | 0.00 | 0.00 | 0.00 | 47 | 1018.8 | |
| 20260506121524 | 47 | 0.0 | 0.0 | 0.00 | 0.00 | 0.00 | 49 | 1018.6 | |
| 20260506120521 | 45 | 0.0 | 0.0 | 0.00 | 0.00 | 0.00 | 53 | 1018.5 | |
| 20260506115536 | 42 | 0.0 | 0.0 | 0.00 | 0.00 | 0.00 | 56 | 1018.4 | |
| 20260506114532 | 41 | 0.0 | 0.0 | 0.00 | 0.00 | 0.00 | 56 | 1018.4 | |
| 20260506113526 | 42 | 0.0 | 0.0 | 0.00 | 0.00 | 0.00 | 54 | 1018.4 | |
| 20260506112522 | 42 | 0.0 | 0.0 | 0.00 | 0.00 | 0.00 | 53 | 1018.2 | |
| 20260506111533 | 42 | 0.0 | 0.0 | 0.00 | 0.00 | 0.00 | 53 | 1018.0 | |
| 20260506110524 | 43 | 0.0 | 0.0 | 0.00 | 0.00 | 0.00 | 50 | 1018.2 | |
| 20260506105515 | 44 | 0.0 | 0.0 | 0.00 | 0.00 | 0.00 | 50 | 1018.2 | |
| 20260506104518 | 44 | 0.0 | 0.0 | 0.00 | 0.00 | 0.00 | 48 | 1018.2 | |
| 20260506103532 | 45 | 0.0 | 0.0 | 0.00 | 0.00 | 0.00 | 46 | 1018.0 | |
| 20260506102528 | 45 | 0.0 | 0.0 | 0.00 | 0.00 | 0.00 | 46 | 1018.0 | |
| 20260506101523 | 46 | 0.0 | 0.0 | 0.00 | 0.00 | 0.00 | 44 | 1017.9 | |
| 20260506100542 | 47 | 0.0 | 0.0 | 0.00 | 0.00 | 0.00 | 43 | 1017.8 | |
| 20260506095543 | 47 | 0.0 | 0.0 | 0.00 | 0.00 | 0.00 | 43 | 1017.7 | |
| 20260506094543 | 47 | 0.0 | 0.0 | 0.00 | 0.00 | 0.00 | 42 | 1017.7 | |
| 20260506093539 | 48 | 0.0 | 0.0 | 0.00 | 0.00 | 0.00 | 41 | 1017.7 | |
| 20260506092526 | 48 | 0.0 | 0.0 | 0.00 | 0.00 | 0.00 | 41 | 1017.3 | |
| 20260506091518 | 48 | 0.0 | 0.0 | 0.00 | 0.00 | 0.00 | 41 | 1017.2 | |
| 20260506090540 | 49 | 0.0 | 0.0 | 0.00 | 0.00 | 0.00 | 40 | 1017.2 | |
| 20260506085534 | 49 | 0.0 | 0.0 | 0.00 | 0.00 | 0.00 | 39 | 1017.2 | |
| 20260506084529 | 49 | 0.0 | 0.0 | 0.00 | 0.00 | 0.00 | 38 | 1017.1 | |
| 20260506083525 | 50 | 0.0 | 0.0 | 0.00 | 0.00 | 0.00 | 38 | 1017.1 | |
| 20260506082522 | 49 | 0.0 | 0.0 | 0.00 | 0.00 | 0.00 | 38 | 1016.9 | |
| 20260506081518 | 50 | 0.0 | 0.0 | 0.00 | 0.00 | 0.00 | 37 | 1017.0 | |
| 20260506080552 | 50 | 0.0 | 0.0 | 0.00 | 0.00 | 0.00 | 37 | 1016.9 | |
| 20260506073520 | 51 | 0.0 | 0.0 | 0.00 | 0.01 | 0.00 | 36 | 1016.7 |